Time;durP1;ratioP1;P1;durP2;ratioP2;P2;SDS_P1;SDS_P2;PMS_P1;PMS_P2;Temp;Humidity;BMP_temperature;BMP_pressure;BME280_temperature;BME280_humidity;BME280_pressure;Samples;Min_cycle;Max_cycle;Signal;HPM_P1;HPM_P2
2023/03/29 00:00:36;;;;;;;3.97;3.00;;;8.30;96.30;;;;;;5056403;28;20456;-55
2023/03/29 00:03:03;;;;;;;4.50;3.33;;;8.30;96.50;;;;;;5056661;28;20564;-55
2023/03/29 00:05:33;;;;;;;5.47;3.43;;;8.20;96.40;;;;;;5056403;28;20468;-55
2023/03/29 00:08:02;;;;;;;3.83;2.90;;;8.20;96.70;;;;;;5056913;28;20619;-55
2023/03/29 00:10:31;;;;;;;4.20;3.20;;;8.20;96.70;;;;;;5056517;28;20504;-55
2023/03/29 00:12:58;;;;;;;4.50;3.30;;;8.10;96.60;;;;;;5056562;28;20475;-55
2023/03/29 00:15:25;;;;;;;6.60;4.00;;;8.10;96.60;;;;;;5056187;28;20455;-55
2023/03/29 00:17:52;;;;;;;3.93;2.97;;;8.10;96.80;;;;;;5055812;28;20820;-55
2023/03/29 00:20:19;;;;;;;3.80;3.20;;;8.10;96.80;;;;;;5055976;28;20445;-55
2023/03/29 00:22:47;;;;;;;4.50;2.93;;;8.00;96.90;;;;;;5055750;28;20473;-55
2023/03/29 00:25:14;;;;;;;4.20;3.80;;;7.90;97.20;;;;;;5056054;28;20446;-55
2023/03/29 00:27:41;;;;;;;5.93;3.20;;;7.90;97.30;;;;;;5055872;28;20890;-55
2023/03/29 00:30:09;;;;;;;4.80;3.90;;;7.90;97.30;;;;;;5055829;28;20445;-55
2023/03/29 00:32:37;;;;;;;4.00;2.80;;;7.90;97.50;;;;;;5055760;28;20474;-55
2023/03/29 00:35:05;;;;;;;3.63;3.30;;;8.00;97.40;;;;;;5056008;28;20441;-55
2023/03/29 00:37:31;;;;;;;5.23;2.47;;;8.00;97.10;;;;;;5055784;28;20448;-55
2023/03/29 00:40:00;;;;;;;4.00;2.87;;;8.10;97.10;;;;;;5055372;28;20479;-55
2023/03/29 00:42:27;;;;;;;3.57;2.90;;;8.10;97.00;;;;;;5055380;28;20870;-56
2023/03/29 00:45:00;;;;;;;4.40;3.43;;;8.00;97.00;;;;;;5055778;28;20450;-56
2023/03/29 00:47:30;;;;;;;10.47;3.93;;;8.00;97.20;;;;;;5055475;28;20473;-55
2023/03/29 00:50:01;;;;;;;4.43;3.43;;;7.90;97.10;;;;;;5055949;28;20437;-55
2023/03/29 00:52:31;;;;;;;3.97;3.60;;;8.00;97.30;;;;;;5055773;28;20450;-55
2023/03/29 00:55:04;;;;;;;4.70;3.40;;;8.00;97.30;;;;;;5055628;28;20445;-55
2023/03/29 00:57:32;;;;;;;4.23;2.90;;;8.00;97.50;;;;;;5055001;28;20426;-55
2023/03/29 01:00:03;;;;;;;5.33;3.23;;;8.00;97.50;;;;;;5055386;28;20457;-55
2023/03/29 01:02:33;;;;;;;5.73;3.23;;;8.00;97.50;;;;;;5055306;28;20430;-56
2023/03/29 01:05:04;;;;;;;4.10;3.13;;;8.00;97.50;;;;;;5055585;28;21009;-55
2023/03/29 01:07:36;;;;;;;3.37;2.93;;;8.10;97.50;;;;;;5055325;28;20470;-55
2023/03/29 01:10:10;;;;;;;3.70;3.30;;;8.00;97.70;;;;;;5055934;28;20516;-55
2023/03/29 01:12:40;;;;;;;8.50;3.17;;;8.00;97.70;;;;;;5055228;28;20780;-55
2023/03/29 01:15:10;;;;;;;5.80;3.70;;;8.00;97.60;;;;;;5055548;28;20449;-55
2023/03/29 01:17:39;;;;;;;3.97;3.00;;;8.00;97.80;;;;;;5055108;28;20437;-55
2023/03/29 01:20:13;;;;;;;3.40;3.07;;;8.00;97.80;;;;;;5054868;28;20499;-56
2023/03/29 01:22:54;;;;;;;7.27;2.90;;;8.00;97.80;;;;;;5055016;28;20473;-55
2023/03/29 01:25:29;;;;;;;6.40;3.60;;;8.00;97.80;;;;;;5055056;28;20521;-55
2023/03/29 01:28:02;;;;;;;6.40;3.20;;;8.00;97.80;;;;;;5054496;28;20982;-55
2023/03/29 01:30:33;;;;;;;4.00;3.13;;;8.00;97.80;;;;;;5054451;28;20430;-55
2023/03/29 01:33:04;;;;;;;3.47;2.60;;;8.10;97.90;;;;;;5054752;28;20561;-56
2023/03/29 01:35:37;;;;;;;8.07;3.07;;;8.10;97.80;;;;;;5055474;28;20777;-55
2023/03/29 01:38:09;;;;;;;3.23;2.93;;;8.10;97.60;;;;;;5054097;28;20939;-55
2023/03/29 01:40:36;;;;;;;4.47;3.30;;;8.10;97.60;;;;;;5054233;28;20916;-55
2023/03/29 01:43:15;;;;;;;3.40;3.10;;;8.00;97.70;;;;;;5054140;28;20840;-55
2023/03/29 01:45:45;;;;;;;5.03;3.20;;;8.00;97.80;;;;;;5054595;28;20438;-55
2023/03/29 01:48:19;;;;;;;3.60;3.10;;;8.10;97.80;;;;;;5054384;28;20465;-55
2023/03/29 01:50:50;;;;;;;4.60;2.87;;;8.10;97.80;;;;;;5053995;28;20799;-55
2023/03/29 01:53:23;;;;;;;3.30;3.00;;;8.10;97.80;;;;;;5054213;28;20470;-55
2023/03/29 01:55:52;;;;;;;4.27;2.77;;;8.10;97.80;;;;;;5054517;28;20438;-55
2023/03/29 01:58:24;;;;;;;8.73;3.20;;;8.10;97.70;;;;;;5054216;28;20452;-55
2023/03/29 02:00:54;;;;;;;5.10;3.20;;;8.10;97.80;;;;;;5054208;28;20472;-55
2023/03/29 02:03:25;;;;;;;3.03;2.57;;;8.10;97.60;;;;;;5054093;28;20465;-55
2023/03/29 02:05:53;;;;;;;3.10;2.80;;;8.20;97.60;;;;;;5053796;28;20856;-55
2023/03/29 02:08:22;;;;;;;3.63;2.63;;;8.30;97.50;;;;;;5053469;28;20485;-55
2023/03/29 02:10:51;;;;;;;3.87;3.53;;;8.30;97.40;;;;;;5053594;28;20449;-55
2023/03/29 02:13:18;;;;;;;3.70;2.57;;;8.40;97.20;;;;;;5053945;28;20904;-55
2023/03/29 02:15:46;;;;;;;3.93;3.53;;;8.40;97.20;;;;;;5054027;28;20468;-55
2023/03/29 02:18:16;;;;;;;4.30;2.90;;;8.50;97.10;;;;;;5053839;28;20437;-55
2023/03/29 02:20:47;;;;;;;7.63;3.27;;;8.40;96.90;;;;;;5053621;28;20503;-55
2023/03/29 02:23:20;;;;;;;4.23;2.63;;;8.40;97.10;;;;;;5053399;28;20979;-56
2023/03/29 02:25:49;;;;;;;4.50;2.77;;;8.40;97.10;;;;;;5053535;28;20949;-55
2023/03/29 02:28:16;;;;;;;3.80;2.63;;;8.30;97.20;;;;;;5053569;28;21013;-55
2023/03/29 02:30:54;;;;;;;6.60;3.03;;;8.30;97.20;;;;;;5053633;28;20445;-55
2023/03/29 02:33:25;;;;;;;4.30;3.10;;;8.30;97.20;;;;;;5053323;28;20469;-55
2023/03/29 02:35:56;;;;;;;4.23;3.17;;;8.30;97.30;;;;;;5053429;28;20450;-55
2023/03/29 02:38:26;;;;;;;4.70;3.03;;;8.40;97.30;;;;;;5053308;28;20514;-55
2023/03/29 02:40:54;;;;;;;5.53;2.80;;;8.40;97.50;;;;;;5054070;28;20437;-55
2023/03/29 02:43:23;;;;;;;6.93;2.97;;;8.40;97.10;;;;;;5053442;28;20493;-56
2023/03/29 02:45:52;;;;;;;3.53;2.60;;;8.50;97.00;;;;;;5053646;28;20441;-55
2023/03/29 02:48:23;;;;;;;3.40;3.10;;;8.50;96.90;;;;;;5053623;28;20486;-55
2023/03/29 02:50:53;;;;;;;3.33;2.80;;;8.50;97.00;;;;;;5053379;28;20499;-55
2023/03/29 02:53:23;;;;;;;4.13;2.50;;;8.60;97.00;;;;;;5056756;28;20485;-56
2023/03/29 02:55:51;;;;;;;4.00;3.17;;;8.60;96.80;;;;;;5073157;28;20907;-56
2023/03/29 02:58:19;;;;;;;4.80;2.87;;;8.60;96.60;;;;;;5073447;28;20455;-55
2023/03/29 03:00:48;;;;;;;8.80;3.33;;;8.60;96.40;;;;;;5073289;28;20460;-55
2023/03/29 03:03:16;;;;;;;2.90;2.60;;;8.60;96.50;;;;;;5073313;28;20821;-56
2023/03/29 03:05:43;;;;;;;3.03;2.60;;;8.70;96.60;;;;;;5073386;28;20476;-56
2023/03/29 03:08:10;;;;;;;4.63;2.80;;;8.70;96.70;;;;;;5072951;28;21081;-56
2023/03/29 03:10:37;;;;;;;2.77;2.53;;;8.80;96.70;;;;;;5073659;28;20456;-56
2023/03/29 03:13:04;;;;;;;6.07;3.10;;;8.80;96.40;;;;;;5073592;28;20526;-56
2023/03/29 03:15:34;;;;;;;2.77;2.57;;;8.80;96.30;;;;;;5073393;28;20453;-56
2023/03/29 03:18:02;;;;;;;3.93;2.60;;;8.80;96.30;;;;;;5073551;28;20448;-57
2023/03/29 03:20:30;;;;;;;3.60;2.67;;;8.80;96.30;;;;;;5074562;28;20488;-56
2023/03/29 03:22:57;;;;;;;3.00;2.13;;;8.80;96.30;;;;;;5077620;28;20500;-56
2023/03/29 03:25:24;;;;;;;3.17;2.87;;;8.90;96.10;;;;;;5077226;28;20961;-56
2023/03/29 03:27:51;;;;;;;5.43;2.63;;;8.90;96.00;;;;;;5077343;28;20491;-56
2023/03/29 03:30:17;;;;;;;3.40;2.87;;;8.90;96.00;;;;;;5077926;28;20563;-56
2023/03/29 03:32:44;;;;;;;2.73;2.17;;;8.90;96.10;;;;;;5076790;28;20464;-56
2023/03/29 03:35:11;;;;;;;2.97;2.67;;;8.90;96.10;;;;;;5077383;28;20475;-56
2023/03/29 03:37:39;;;;;;;2.63;2.43;;;8.90;96.10;;;;;;5077155;28;20543;-56
2023/03/29 03:40:10;;;;;;;6.57;3.90;;;9.00;96.30;;;;;;5076491;28;20493;-56
2023/03/29 03:42:37;;;;;;;6.37;3.17;;;9.00;96.30;;;;;;5077883;28;20436;-56
2023/03/29 03:45:07;;;;;;;3.83;2.90;;;9.00;96.40;;;;;;5078345;28;20479;-56
2023/03/29 03:47:33;;;;;;;2.40;2.20;;;9.10;96.50;;;;;;5077323;28;20550;-56
2023/03/29 03:50:00;;;;;;;3.30;2.40;;;9.10;96.70;;;;;;5076513;28;21012;-56
2023/03/29 03:52:27;;;;;;;4.53;2.40;;;9.10;96.90;;;;;;5076925;28;20513;-56
2023/03/29 03:54:55;;;;;;;4.47;2.90;;;9.20;97.10;;;;;;5077135;28;20525;-56
2023/03/29 03:57:23;;;;;;;4.80;2.97;;;9.20;97.10;;;;;;5076791;28;20452;-56
2023/03/29 03:59:50;;;;;;;5.17;2.80;;;9.20;97.20;;;;;;5076638;28;20449;-56
2023/03/29 04:02:16;;;;;;;3.83;2.83;;;9.20;97.30;;;;;;5076793;28;20449;-56
2023/03/29 04:04:43;;;;;;;3.70;2.80;;;9.30;97.50;;;;;;5076476;28;20824;-56
2023/03/29 04:07:11;;;;;;;4.60;3.07;;;9.30;97.50;;;;;;5076398;28;20444;-56
2023/03/29 04:09:38;;;;;;;3.20;2.90;;;9.30;97.70;;;;;;5076111;28;20537;-57
2023/03/29 04:12:07;;;;;;;2.63;2.37;;;9.30;97.80;;;;;;5076936;28;20484;-56
2023/03/29 04:14:34;;;;;;;5.87;3.10;;;9.30;97.70;;;;;;5076334;28;20499;-56
2023/03/29 04:17:01;;;;;;;2.73;2.53;;;9.30;97.60;;;;;;5076408;28;20449;-56
2023/03/29 04:19:27;;;;;;;3.27;2.70;;;9.30;97.60;;;;;;5076261;28;20850;-56
2023/03/29 04:21:54;;;;;;;7.97;3.03;;;9.30;97.60;;;;;;5076200;28;20456;-56
2023/03/29 04:24:23;;;;;;;4.00;3.00;;;9.40;97.80;;;;;;5076052;28;20511;-56
2023/03/29 04:26:50;;;;;;;3.60;2.60;;;9.40;97.90;;;;;;5076855;28;20484;-56
2023/03/29 04:29:18;;;;;;;5.30;3.20;;;9.40;97.90;;;;;;5075867;28;20538;-56
2023/03/29 04:31:44;;;;;;;4.80;3.10;;;9.40;97.90;;;;;;5075011;28;20456;-56
2023/03/29 04:34:11;;;;;;;5.03;3.40;;;9.40;98.00;;;;;;5075763;28;20842;-56
2023/03/29 04:36:38;;;;;;;5.20;2.93;;;9.40;98.20;;;;;;5076056;28;20467;-56
2023/03/29 04:39:06;;;;;;;5.40;2.63;;;9.40;98.20;;;;;;5075558;28;20910;-56
2023/03/29 04:41:33;;;;;;;4.80;4.40;;;9.40;98.20;;;;;;5075844;28;20508;-56
2023/03/29 04:44:01;;;;;;;3.10;2.80;;;9.40;98.10;;;;;;5075893;28;20467;-56
2023/03/29 04:46:31;;;;;;;4.37;2.73;;;9.50;98.20;;;;;;5075836;28;20449;-56
2023/03/29 04:48:58;;;;;;;3.10;2.77;;;9.50;98.20;;;;;;5075437;28;20480;-56
2023/03/29 04:51:26;;;;;;;4.40;2.50;;;9.50;98.20;;;;;;5075953;28;20448;-56
2023/03/29 04:53:53;;;;;;;5.73;3.30;;;9.50;98.10;;;;;;5075335;28;20472;-56
2023/03/29 04:56:19;;;;;;;3.43;2.50;;;9.50;98.20;;;;;;5075090;28;20452;-57
2023/03/29 04:58:47;;;;;;;3.03;2.73;;;9.50;98.30;;;;;;5075173;28;20934;-56
2023/03/29 05:01:13;;;;;;;4.97;2.77;;;9.50;98.40;;;;;;5075365;28;20456;-56
2023/03/29 05:03:41;;;;;;;6.23;2.87;;;9.50;98.40;;;;;;5075324;28;20469;-56
2023/03/29 05:06:11;;;;;;;4.23;2.83;;;9.50;98.40;;;;;;5075223;28;20531;-56
2023/03/29 05:08:38;;;;;;;3.53;3.23;;;9.50;98.50;;;;;;5075197;28;20488;-56
2023/03/29 05:11:06;;;;;;;5.73;3.10;;;9.50;98.50;;;;;;5075024;28;20459;-56
2023/03/29 05:13:33;;;;;;;8.07;3.00;;;9.50;98.50;;;;;;5074783;28;21031;-56
2023/03/29 05:16:00;;;;;;;3.30;2.83;;;9.50;98.50;;;;;;5075017;28;20460;-56
2023/03/29 05:18:27;;;;;;;5.63;2.77;;;9.50;98.50;;;;;;5074972;28;20483;-56
2023/03/29 05:20:55;;;;;;;3.60;3.20;;;9.50;98.40;;;;;;5074542;28;20950;-56
2023/03/29 05:23:22;;;;;;;4.40;3.27;;;9.50;98.30;;;;;;5074804;28;20522;-56
2023/03/29 05:25:49;;;;;;;5.50;3.33;;;9.50;98.20;;;;;;5074605;28;20961;-56
2023/03/29 05:28:16;;;;;;;3.40;2.53;;;9.50;98.20;;;;;;5074414;28;20958;-56
2023/03/29 05:30:43;;;;;;;3.40;3.10;;;9.50;98.20;;;;;;5074971;28;20499;-56
2023/03/29 05:33:10;;;;;;;6.27;3.10;;;9.50;98.30;;;;;;5074652;28;20877;-56
2023/03/29 05:35:37;;;;;;;7.13;3.23;;;9.60;98.30;;;;;;5074653;28;20444;-56
2023/03/29 05:38:05;;;;;;;8.27;3.60;;;9.60;98.40;;;;;;5074101;28;20862;-56
2023/03/29 05:40:32;;;;;;;5.57;3.60;;;9.60;98.40;;;;;;5074563;28;20439;-56
2023/03/29 05:43:01;;;;;;;4.53;3.80;;;9.60;98.40;;;;;;5074007;28;20469;-56
2023/03/29 05:45:28;;;;;;;7.07;4.13;;;9.60;98.40;;;;;;5074307;28;20455;-56
2023/03/29 05:47:56;;;;;;;5.70;4.00;;;9.60;98.40;;;;;;5074482;28;20441;-56
2023/03/29 05:50:23;;;;;;;4.90;4.13;;;9.60;98.30;;;;;;5074206;28;20942;-56
2023/03/29 05:52:50;;;;;;;6.07;3.43;;;9.60;98.20;;;;;;5073300;28;20989;-57
2023/03/29 05:55:18;;;;;;;4.40;2.80;;;9.70;98.30;;;;;;5073983;28;20456;-56
2023/03/29 05:57:45;;;;;;;4.10;2.90;;;9.70;97.80;;;;;;5074156;28;20448;-56
2023/03/29 06:00:19;;;;;;;5.20;3.00;;;9.70;97.30;;;;;;5073846;28;20483;-56
2023/03/29 06:02:45;;;;;;;4.77;2.93;;;9.70;97.10;;;;;;5074050;28;20469;-56
2023/03/29 06:05:12;;;;;;;3.83;2.60;;;9.70;96.80;;;;;;5074072;28;20527;-56
2023/03/29 06:07:39;;;;;;;4.73;2.90;;;9.70;96.70;;;;;;5074039;28;20440;-56
2023/03/29 06:10:08;;;;;;;4.23;2.80;;;9.70;96.40;;;;;;5073811;28;20538;-56
2023/03/29 06:12:36;;;;;;;4.60;3.00;;;9.70;96.30;;;;;;5073652;28;21012;-56
2023/03/29 06:15:03;;;;;;;5.77;2.60;;;9.80;96.10;;;;;;5073591;28;20890;-56
2023/03/29 06:17:32;;;;;;;5.40;2.80;;;9.80;96.10;;;;;;5073840;28;20860;-56
2023/03/29 06:19:59;;;;;;;4.50;3.10;;;9.80;96.10;;;;;;5073501;28;20451;-56
2023/03/29 06:22:26;;;;;;;3.80;2.43;;;9.80;96.10;;;;;;5074419;28;20448;-57
2023/03/29 06:24:53;;;;;;;2.47;2.27;;;9.80;95.90;;;;;;5073409;28;20993;-56
2023/03/29 06:27:19;;;;;;;4.53;2.87;;;9.80;95.90;;;;;;5073653;28;20448;-56
2023/03/29 06:29:47;;;;;;;4.60;3.00;;;9.90;95.90;;;;;;5073593;28;20476;-56
2023/03/29 06:32:14;;;;;;;4.07;2.57;;;10.00;95.40;;;;;;5073718;28;20532;-56
2023/03/29 06:34:41;;;;;;;4.70;2.60;;;10.00;95.30;;;;;;5073552;28;20473;-56
2023/03/29 06:37:08;;;;;;;3.50;2.53;;;10.00;95.10;;;;;;5073672;28;20814;-56
2023/03/29 06:39:35;;;;;;;8.23;2.60;;;10.00;94.90;;;;;;5073408;28;20452;-56
2023/03/29 06:42:01;;;;;;;4.97;2.57;;;10.10;95.00;;;;;;5073537;28;20449;-58
2023/03/29 06:44:28;;;;;;;3.47;2.63;;;10.10;95.00;;;;;;5073626;28;20468;-56
2023/03/29 06:46:56;;;;;;;7.70;3.10;;;10.10;95.00;;;;;;5074611;28;20459;-56
2023/03/29 06:49:23;;;;;;;4.53;2.97;;;10.20;95.00;;;;;;5073102;28;20477;-56
2023/03/29 06:51:49;;;;;;;4.40;2.67;;;10.20;95.00;;;;;;5073481;28;20811;-56
2023/03/29 06:54:16;;;;;;;3.80;3.00;;;10.20;95.10;;;;;;5073247;28;20556;-56
2023/03/29 06:56:42;;;;;;;2.87;2.57;;;10.20;95.30;;;;;;5072590;28;20498;-56
2023/03/29 06:59:09;;;;;;;5.80;3.13;;;10.20;95.30;;;;;;5073135;28;20942;-56
2023/03/29 07:01:36;;;;;;;3.40;2.50;;;10.30;95.30;;;;;;5073017;28;20843;-56
2023/03/29 07:04:08;;;;;;;4.70;3.27;;;10.20;95.30;;;;;;5073393;28;20495;-56
2023/03/29 07:06:35;;;;;;;3.97;3.37;;;10.10;95.60;;;;;;5073371;28;20429;-57
2023/03/29 07:09:05;;;;;;;4.37;3.20;;;10.20;95.50;;;;;;5073340;28;20485;-56
2023/03/29 07:11:34;;;;;;;3.37;3.07;;;10.20;95.50;;;;;;5073426;28;20456;-56
2023/03/29 07:14:01;;;;;;;7.70;3.70;;;10.10;95.60;;;;;;5073215;28;20916;-56
2023/03/29 07:16:28;;;;;;;3.80;3.03;;;10.10;95.90;;;;;;5073126;28;20943;-56
2023/03/29 07:18:55;;;;;;;6.57;3.20;;;10.00;96.20;;;;;;5073176;28;20445;-56
2023/03/29 07:21:23;;;;;;;6.70;4.00;;;10.00;96.80;;;;;;5073037;28;20460;-56
2023/03/29 07:23:51;;;;;;;6.43;3.33;;;10.10;97.50;;;;;;5073015;28;20491;-56
2023/03/29 07:26:19;;;;;;;3.83;2.90;;;10.10;98.10;;;;;;5072862;28;20449;-56
2023/03/29 07:28:46;;;;;;;5.90;3.43;;;10.10;98.40;;;;;;5073105;28;20448;-56
2023/03/29 07:31:14;;;;;;;5.13;3.60;;;10.10;98.60;;;;;;5073830;28;20476;-56
2023/03/29 07:33:41;;;;;;;4.83;3.63;;;10.20;99.20;;;;;;5072973;28;20473;-56
2023/03/29 07:36:08;;;;;;;3.47;2.90;;;10.20;99.30;;;;;;5072915;28;20456;-56
2023/03/29 07:38:37;;;;;;;3.30;2.90;;;10.30;99.50;;;;;;5072870;28;20456;-56
2023/03/29 07:41:05;;;;;;;4.83;2.83;;;10.40;99.50;;;;;;5072836;28;20444;-56
2023/03/29 07:43:33;;;;;;;6.10;3.30;;;10.60;99.40;;;;;;5072885;28;20473;-56
2023/03/29 07:46:01;;;;;;;7.23;2.93;;;10.80;99.30;;;;;;5072983;28;20456;-56
2023/03/29 07:48:28;;;;;;;8.70;3.70;;;11.00;98.80;;;;;;5072844;28;20449;-56
2023/03/29 07:50:55;;;;;;;8.10;2.73;;;11.10;98.50;;;;;;5072791;28;20512;-56
2023/03/29 07:53:23;;;;;;;7.47;3.73;;;11.30;98.30;;;;;;5072546;28;20982;-56
2023/03/29 07:55:53;;;;;;;3.67;2.87;;;11.50;98.00;;;;;;5072799;28;20449;-56
2023/03/29 07:58:20;;;;;;;3.53;2.90;;;11.70;97.50;;;;;;5072757;28;20429;-56
2023/03/29 08:00:47;;;;;;;8.00;3.20;;;11.80;97.00;;;;;;5072775;28;20444;-56
2023/03/29 08:03:15;;;;;;;4.93;2.60;;;12.00;96.60;;;;;;5072459;28;21035;-56
2023/03/29 08:05:42;;;;;;;5.70;3.10;;;12.20;96.30;;;;;;5072777;28;20448;-56
2023/03/29 08:08:09;;;;;;;5.77;2.83;;;12.30;95.50;;;;;;5076298;28;20451;-56
2023/03/29 08:10:38;;;;;;;8.70;2.80;;;12.40;95.30;;;;;;5076347;28;20583;-56
2023/03/29 08:13:08;;;;;;;4.33;2.90;;;12.50;95.10;;;;;;5076180;28;20526;-57
2023/03/29 08:15:36;;;;;;;6.43;2.90;;;12.50;94.30;;;;;;5076286;28;20452;-56
2023/03/29 08:18:03;;;;;;;9.33;4.00;;;12.40;93.60;;;;;;5076634;28;20465;-56
2023/03/29 08:20:31;;;;;;;5.90;2.80;;;12.30;93.80;;;;;;5075664;28;20964;-56
2023/03/29 08:22:58;;;;;;;6.97;2.93;;;12.30;93.70;;;;;;5075996;28;20568;-57
2023/03/29 08:25:24;;;;;;;5.43;3.13;;;12.20;93.90;;;;;;5076027;28;20455;-56
2023/03/29 08:27:51;;;;;;;5.87;3.17;;;12.20;94.30;;;;;;5075968;28;20449;-56
2023/03/29 08:30:20;;;;;;;4.90;2.80;;;12.30;94.20;;;;;;5075857;28;20572;-56
2023/03/29 08:32:46;;;;;;;3.40;2.97;;;12.30;94.10;;;;;;5075920;28;20504;-57
2023/03/29 08:35:13;;;;;;;5.17;3.10;;;12.30;94.20;;;;;;5075521;28;20946;-56
2023/03/29 08:37:40;;;;;;;4.80;3.10;;;12.30;94.30;;;;;;5075757;28;20475;-56
2023/03/29 08:40:08;;;;;;;5.60;3.30;;;12.20;94.40;;;;;;5075444;28;20464;-56
2023/03/29 08:42:48;;;;;;;6.43;3.00;;;12.10;94.40;;;;;;5075730;28;20594;-57
2023/03/29 08:45:23;;;;;;;6.40;3.10;;;12.10;94.90;;;;;;5075382;28;20805;-56
2023/03/29 08:47:58;;;;;;;5.50;3.33;;;12.10;94.50;;;;;;5075611;28;20444;-56
2023/03/29 08:50:35;;;;;;;5.07;3.00;;;12.20;94.80;;;;;;5075180;28;20586;-56
2023/03/29 08:53:06;;;;;;;6.33;3.20;;;12.20;94.40;;;;;;5073631;28;20460;-56
2023/03/29 08:55:37;;;;;;;5.63;2.77;;;12.30;94.40;;;;;;5055658;28;20837;-56
2023/03/29 08:58:07;;;;;;;8.63;3.40;;;12.40;94.20;;;;;;5055105;28;20912;-56
2023/03/29 09:00:39;;;;;;;5.90;3.57;;;12.50;94.30;;;;;;5055335;28;20431;-56
2023/03/29 09:03:13;;;;;;;4.30;3.07;;;12.50;94.10;;;;;;5055223;28;20465;-56
2023/03/29 09:05:45;;;;;;;6.73;3.67;;;12.70;94.00;;;;;;5055231;28;20433;-56
2023/03/29 09:08:15;;;;;;;7.80;2.93;;;12.70;93.90;;;;;;5055168;28;20430;-56
2023/03/29 09:10:46;;;;;;;8.27;3.90;;;12.80;93.90;;;;;;5054797;28;20995;-56
2023/03/29 09:13:27;;;;;;;4.90;3.30;;;13.00;93.90;;;;;;5055082;28;20480;-56
2023/03/29 09:16:04;;;;;;;9.47;3.97;;;13.10;93.60;;;;;;5055118;28;20438;-56
2023/03/29 09:18:40;;;;;;;6.53;3.27;;;13.20;93.60;;;;;;5054458;28;20491;-57
2023/03/29 09:21:16;;;;;;;4.30;3.40;;;13.40;93.40;;;;;;5055065;28;20802;-56
2023/03/29 09:24:03;;;;;;;6.67;3.20;;;13.60;93.50;;;;;;5055476;28;20493;-57
2023/03/29 09:26:39;;;;;;;3.70;2.60;;;13.80;93.40;;;;;;5054630;28;20433;-56
2023/03/29 09:29:18;;;;;;;7.20;2.97;;;14.00;93.00;;;;;;5054805;28;20434;-56
2023/03/29 09:31:47;;;;;;;6.03;2.67;;;14.20;92.40;;;;;;5054739;28;20469;-56
2023/03/29 09:34:20;;;;;;;10.13;3.60;;;14.20;91.80;;;;;;5054656;28;20491;-56
2023/03/29 09:36:52;;;;;;;5.03;3.13;;;14.30;91.80;;;;;;5054324;28;20926;-57
2023/03/29 09:39:19;;;;;;;8.47;2.60;;;14.30;91.60;;;;;;5054378;28;20548;-56
2023/03/29 09:41:52;;;;;;;7.60;3.00;;;14.30;91.50;;;;;;5054474;28;20444;-56
2023/03/29 09:44:22;;;;;;;4.50;2.87;;;14.30;91.60;;;;;;5054611;28;20466;-56
2023/03/29 09:46:54;;;;;;;5.73;3.37;;;14.40;91.90;;;;;;5054787;28;20449;-56
2023/03/29 09:49:26;;;;;;;4.83;3.00;;;14.30;91.60;;;;;;5054750;28;20469;-57
2023/03/29 09:51:57;;;;;;;9.47;2.90;;;14.40;91.80;;;;;;5054322;28;20812;-56
2023/03/29 09:54:23;;;;;;;4.40;2.30;;;14.50;91.50;;;;;;5054361;28;20472;-56
2023/03/29 09:56:51;;;;;;;6.47;2.77;;;14.60;91.00;;;;;;5055258;28;20441;-56
2023/03/29 09:59:18;;;;;;;7.60;2.60;;;14.80;90.90;;;;;;5054340;28;20441;-56
2023/03/29 10:01:45;;;;;;;4.43;3.00;;;14.90;90.40;;;;;;5055153;28;20441;-56
2023/03/29 10:04:15;;;;;;;5.03;2.90;;;15.10;89.80;;;;;;5054223;28;20465;-56
2023/03/29 10:06:44;;;;;;;5.00;2.43;;;15.20;89.00;;;;;;5054196;28;20441;-57
2023/03/29 10:09:16;;;;;;;5.53;2.40;;;15.20;88.30;;;;;;5054100;28;20450;-56
2023/03/29 10:11:47;;;;;;;2.97;2.67;;;15.30;86.80;;;;;;5053919;28;20527;-56
2023/03/29 10:14:17;;;;;;;4.83;3.10;;;15.20;87.10;;;;;;5054095;28;20465;-56
2023/03/29 10:16:46;;;;;;;12.20;4.30;;;15.20;86.80;;;;;;5053866;28;20796;-56
2023/03/29 10:19:23;;;;;;;3.93;2.60;;;15.20;85.30;;;;;;5053933;28;20453;-56
2023/03/29 10:21:51;;;;;;;4.10;2.97;;;15.10;85.40;;;;;;5053896;28;20842;-56
2023/03/29 10:24:20;;;;;;;4.03;2.90;;;15.10;86.30;;;;;;5053799;28;20473;-56
2023/03/29 10:26:48;;;;;;;5.57;2.93;;;15.20;86.30;;;;;;5053937;28;20523;-56
2023/03/29 10:29:15;;;;;;;3.80;2.10;;;15.20;85.80;;;;;;5053276;28;20540;-57
2023/03/29 10:31:42;;;;;;;7.17;3.20;;;15.40;85.20;;;;;;5053245;28;20481;-56
2023/03/29 10:34:12;;;;;;;5.83;2.70;;;15.60;85.00;;;;;;5053688;28;20469;-56
2023/03/29 10:36:43;;;;;;;2.83;2.10;;;15.80;84.10;;;;;;5053428;28;20430;-56
2023/03/29 10:39:13;;;;;;;9.67;3.00;;;16.20;82.30;;;;;;5053405;28;20537;-56
2023/03/29 10:41:40;;;;;;;5.80;2.47;;;16.70;80.80;;;;;;5053516;28;20454;-56
2023/03/29 10:44:07;;;;;;;7.00;3.33;;;17.00;80.50;;;;;;5053488;28;20923;-56
2023/03/29 10:46:40;;;;;;;2.90;2.40;;;17.20;76.60;;;;;;5053189;28;21025;-57
2023/03/29 10:49:18;;;;;;;4.53;3.17;;;17.00;75.60;;;;;;5053436;28;20434;-57
2023/03/29 10:51:48;;;;;;;2.70;2.47;;;16.90;76.80;;;;;;5053688;28;20469;-57
2023/03/29 10:54:19;;;;;;;4.40;2.40;;;16.90;76.50;;;;;;5053542;28;20465;-57
2023/03/29 10:56:49;;;;;;;5.80;3.10;;;17.00;76.90;;;;;;5053312;28;20441;-57
2023/03/29 10:59:38;;;;;;;5.53;3.13;;;16.90;76.80;;;;;;5053401;28;20434;-56
2023/03/29 11:02:39;;;;;;;6.03;3.10;;;16.80;78.50;;;;;;5053515;28;20445;-56
2023/03/29 11:05:24;;;;;;;6.33;2.97;;;16.50;78.00;;;;;;5052921;28;20934;-57
2023/03/29 11:08:16;;;;;;;4.67;2.77;;;16.50;80.20;;;;;;5053025;28;20931;-56
2023/03/29 11:10:50;;;;;;;2.60;2.10;;;16.50;81.00;;;;;;5053053;28;20465;-56
2023/03/29 11:13:24;;;;;;;4.40;2.30;;;16.70;78.00;;;;;;5052863;28;21020;-56
2023/03/29 11:16:02;;;;;;;6.40;2.60;;;16.90;77.70;;;;;;5053194;28;20429;-56
2023/03/29 11:18:46;;;;;;;5.97;3.10;;;17.20;77.50;;;;;;5053118;28;20521;-57
2023/03/29 11:21:24;;;;;;;3.80;2.30;;;17.70;76.50;;;;;;5053083;28;20429;-56
2023/03/29 11:24:07;;;;;;;3.20;2.40;;;18.30;74.10;;;;;;5053083;28;20469;-57
2023/03/29 11:26:42;;;;;;;6.10;2.90;;;19.10;70.90;;;;;;5052791;28;20479;-58
2023/03/29 11:29:17;;;;;;;6.60;2.60;;;19.50;66.50;;;;;;5053290;28;20441;-57
2023/03/29 11:31:53;;;;;;;5.33;2.70;;;19.50;68.30;;;;;;5052731;28;21027;-57
2023/03/29 11:34:29;;;;;;;4.30;2.57;;;19.60;69.50;;;;;;5052719;28;21012;-57
2023/03/29 11:37:02;;;;;;;4.40;3.03;;;19.50;66.40;;;;;;5052890;28;20817;-56
2023/03/29 11:39:42;;;;;;;6.00;2.67;;;19.70;68.10;;;;;;5052657;28;20466;-56
2023/03/29 11:42:16;;;;;;;5.23;2.60;;;19.80;67.30;;;;;;5055223;28;20851;-56
2023/03/29 11:44:47;;;;;;;3.33;2.70;;;19.80;66.10;;;;;;5056796;28;20469;-57
2023/03/29 11:47:17;;;;;;;5.40;2.63;;;19.70;67.10;;;;;;5056798;28;20434;-56
2023/03/29 11:49:48;;;;;;;6.23;3.10;;;19.80;69.30;;;;;;5056486;28;20430;-57
2023/03/29 11:52:19;;;;;;;5.70;2.77;;;19.70;67.80;;;;;;5056753;28;20470;-57
2023/03/29 11:54:52;;;;;;;3.07;1.93;;;19.30;66.80;;;;;;5056805;28;20464;-56
2023/03/29 11:57:23;;;;;;;8.37;2.10;;;18.70;71.20;;;;;;5056875;28;20434;-57
2023/03/29 11:59:56;;;;;;;2.17;2.03;;;18.60;70.60;;;;;;5056303;28;20460;-56
2023/03/29 12:02:27;;;;;;;5.27;2.30;;;18.50;70.90;;;;;;5056772;28;20426;-56
2023/03/29 12:04:57;;;;;;;4.10;2.70;;;18.40;70.80;;;;;;5056461;28;20436;-57
2023/03/29 12:07:29;;;;;;;5.30;3.10;;;18.40;71.90;;;;;;5056417;28;20436;-56
2023/03/29 12:10:02;;;;;;;4.80;2.93;;;18.40;72.70;;;;;;5056587;28;20807;-57
2023/03/29 12:12:44;;;;;;;3.63;2.27;;;18.40;72.30;;;;;;5056201;28;20465;-57
2023/03/29 12:15:18;;;;;;;5.10;2.63;;;18.70;72.00;;;;;;5056104;28;20916;-56
2023/03/29 12:17:54;;;;;;;6.43;2.80;;;19.50;70.40;;;;;;5056373;28;20520;-56
2023/03/29 12:20:26;;;;;;;8.00;2.10;;;20.40;64.60;;;;;;5055928;28;20937;-57
2023/03/29 12:22:54;;;;;;;4.53;2.63;;;20.60;63.60;;;;;;5055896;28;20564;-57
2023/03/29 12:25:26;;;;;;;5.33;2.60;;;21.00;62.00;;;;;;5056371;28;20453;-57
2023/03/29 12:28:07;;;;;;;4.10;2.30;;;21.20;59.70;;;;;;5056185;28;20437;-57
2023/03/29 12:30:48;;;;;;;5.50;2.40;;;21.00;60.10;;;;;;5056223;28;20429;-57
2023/03/29 12:33:36;;;;;;;5.67;3.07;;;20.70;63.00;;;;;;5056185;28;20477;-56
2023/03/29 12:36:15;;;;;;;4.17;2.20;;;20.80;62.00;;;;;;5056433;28;20484;-56
2023/03/29 12:38:43;;;;;;;5.03;2.90;;;20.80;62.60;;;;;;5056305;28;20457;-57
2023/03/29 12:41:16;;;;;;;4.57;2.10;;;20.80;61.50;;;;;;5056425;28;20441;-57
2023/03/29 12:43:43;;;;;;;5.40;2.30;;;20.90;62.70;;;;;;5056716;28;20462;-57
2023/03/29 12:46:16;;;;;;;2.50;2.03;;;21.40;58.40;;;;;;5056902;28;20445;-57
2023/03/29 12:48:45;;;;;;;3.63;2.17;;;21.50;57.90;;;;;;5056790;28;20912;-57
2023/03/29 12:51:15;;;;;;;3.00;2.27;;;21.30;58.20;;;;;;5056872;28;20485;-57
2023/03/29 12:53:44;;;;;;;2.57;2.20;;;20.90;58.70;;;;;;5055410;28;20560;-57
2023/03/29 12:56:16;;;;;;;3.33;2.10;;;20.90;60.00;;;;;;5055884;28;20454;-57
2023/03/29 12:59:04;;;;;;;2.67;1.90;;;21.00;60.50;;;;;;5055673;28;20820;-57
2023/03/29 13:01:32;;;;;;;3.80;2.20;;;21.50;60.10;;;;;;5055647;28;20434;-57
2023/03/29 13:04:21;;;;;;;3.10;2.27;;;22.40;57.80;;;;;;5055336;28;20476;-56
2023/03/29 13:07:04;;;;;;;6.83;1.80;;;22.70;57.10;;;;;;5050660;28;20469;-56